Terminal Aerodrome Forecast
Issued by NWS Jacksonville, FL

Home | Current Version | Previous Version | Text Only | Print | Product List | Glossary On
Versions: 1 2 3 4 5 6 7 8 9 10 11 12 13 14 15
594
FTUS42 KJAX 052210 AAB
TAFJAX
TAF AMD
KJAX 052210Z 0522/0618 15005KT P6SM FEW040 BKN120 BKN200
     FM060600 18012KT 4SM RA OVC010
     FM061000 18012KT 4SM BR OVC004
      TEMPO 0610/0614 2SM -TSRA BKN004 OVC015CB
     FM061400 21016G25KT 5SM RA OVC015
      TEMPO 0614/0618 2SM -TSRA OVC015CB=

USA.gov is the U.S. government's official web portal to all federal, state and local government web resources and services.